sensor_id;sensor_type;location;lat;lon;timestamp;P1;durP1;ratioP1;P2;durP2;ratioP2
7607;SDS011;3845;48.120;11.534;2023-03-23T00:01:13;3.80;;;2.57;;
7607;SDS011;3845;48.120;11.534;2023-03-23T00:03:44;3.67;;;2.80;;
7607;SDS011;3845;48.120;11.534;2023-03-23T00:06:10;3.20;;;2.37;;
7607;SDS011;3845;48.120;11.534;2023-03-23T00:08:42;2.87;;;2.20;;
7607;SDS011;3845;48.120;11.534;2023-03-23T00:11:15;3.80;;;2.10;;
7607;SDS011;3845;48.120;11.534;2023-03-23T00:13:44;3.53;;;2.70;;
7607;SDS011;3845;48.120;11.534;2023-03-23T00:16:11;3.50;;;2.63;;
7607;SDS011;3845;48.120;11.534;2023-03-23T00:18:46;4.10;;;3.00;;
7607;SDS011;3845;48.120;11.534;2023-03-23T00:21:13;3.33;;;2.60;;
7607;SDS011;3845;48.120;11.534;2023-03-23T00:23:38;2.93;;;2.30;;
7607;SDS011;3845;48.120;11.534;2023-03-23T00:26:04;3.50;;;2.50;;
7607;SDS011;3845;48.120;11.534;2023-03-23T00:28:30;4.00;;;2.50;;
7607;SDS011;3845;48.120;11.534;2023-03-23T00:31:00;3.70;;;2.57;;
7607;SDS011;3845;48.120;11.534;2023-03-23T00:33:27;4.13;;;2.60;;
7607;SDS011;3845;48.120;11.534;2023-03-23T00:35:53;3.10;;;2.20;;
7607;SDS011;3845;48.120;11.534;2023-03-23T00:38:23;4.17;;;2.27;;
7607;SDS011;3845;48.120;11.534;2023-03-23T00:40:49;2.43;;;2.13;;
7607;SDS011;3845;48.120;11.534;2023-03-23T00:43:15;2.43;;;2.20;;
7607;SDS011;3845;48.120;11.534;2023-03-23T00:45:41;3.87;;;2.40;;
7607;SDS011;3845;48.120;11.534;2023-03-23T00:48:09;3.53;;;2.33;;
7607;SDS011;3845;48.120;11.534;2023-03-23T00:50:37;2.40;;;2.20;;
7607;SDS011;3845;48.120;11.534;2023-03-23T00:53:02;3.17;;;2.30;;
7607;SDS011;3845;48.120;11.534;2023-03-23T00:55:28;2.80;;;2.47;;
7607;SDS011;3845;48.120;11.534;2023-03-23T00:57:55;2.50;;;2.30;;
7607;SDS011;3845;48.120;11.534;2023-03-23T01:00:20;4.30;;;2.30;;
7607;SDS011;3845;48.120;11.534;2023-03-23T01:02:46;2.90;;;2.30;;
7607;SDS011;3845;48.120;11.534;2023-03-23T01:05:12;3.40;;;2.20;;
7607;SDS011;3845;48.120;11.534;2023-03-23T01:07:37;2.40;;;2.10;;
7607;SDS011;3845;48.120;11.534;2023-03-23T01:10:03;2.50;;;2.23;;
7607;SDS011;3845;48.120;11.534;2023-03-23T01:12:29;2.37;;;2.10;;
7607;SDS011;3845;48.120;11.534;2023-03-23T01:14:55;3.47;;;2.50;;
7607;SDS011;3845;48.120;11.534;2023-03-23T01:17:20;2.50;;;2.03;;
7607;SDS011;3845;48.120;11.534;2023-03-23T01:19:45;3.33;;;2.20;;
7607;SDS011;3845;48.120;11.534;2023-03-23T01:22:11;3.90;;;2.10;;
7607;SDS011;3845;48.120;11.534;2023-03-23T01:24:36;2.23;;;1.77;;
7607;SDS011;3845;48.120;11.534;2023-03-23T01:27:02;3.63;;;1.70;;
7607;SDS011;3845;48.120;11.534;2023-03-23T01:29:31;2.40;;;1.80;;
7607;SDS011;3845;48.120;11.534;2023-03-23T01:31:58;2.73;;;1.80;;
7607;SDS011;3845;48.120;11.534;2023-03-23T01:34:23;2.00;;;1.73;;
7607;SDS011;3845;48.120;11.534;2023-03-23T01:36:49;2.10;;;1.80;;
7607;SDS011;3845;48.120;11.534;2023-03-23T01:39:14;2.00;;;1.70;;
7607;SDS011;3845;48.120;11.534;2023-03-23T01:41:39;1.90;;;1.53;;
7607;SDS011;3845;48.120;11.534;2023-03-23T01:44:07;2.37;;;1.77;;
7607;SDS011;3845;48.120;11.534;2023-03-23T01:46:42;1.73;;;1.60;;
7607;SDS011;3845;48.120;11.534;2023-03-23T01:49:09;2.10;;;1.60;;
7607;SDS011;3845;48.120;11.534;2023-03-23T01:51:40;1.83;;;1.50;;
7607;SDS011;3845;48.120;11.534;2023-03-23T01:54:18;1.90;;;1.53;;
7607;SDS011;3845;48.120;11.534;2023-03-23T01:56:47;2.23;;;1.50;;
7607;SDS011;3845;48.120;11.534;2023-03-23T01:59:15;2.13;;;1.70;;
7607;SDS011;3845;48.120;11.534;2023-03-23T02:01:41;1.70;;;1.60;;
7607;SDS011;3845;48.120;11.534;2023-03-23T02:04:10;2.17;;;1.67;;
7607;SDS011;3845;48.120;11.534;2023-03-23T02:06:36;1.93;;;1.47;;
7607;SDS011;3845;48.120;11.534;2023-03-23T02:09:02;1.70;;;1.60;;
7607;SDS011;3845;48.120;11.534;2023-03-23T02:11:29;1.80;;;1.60;;
7607;SDS011;3845;48.120;11.534;2023-03-23T02:13:54;2.83;;;1.80;;
7607;SDS011;3845;48.120;11.534;2023-03-23T02:19:23;2.20;;;1.80;;
7607;SDS011;3845;48.120;11.534;2023-03-23T02:25:00;3.00;;;2.00;;
7607;SDS011;3845;48.120;11.534;2023-03-23T02:41:56;2.10;;;1.60;;
7607;SDS011;3845;48.120;11.534;2023-03-23T02:44:24;1.83;;;1.67;;
7607;SDS011;3845;48.120;11.534;2023-03-23T02:46:50;2.03;;;1.60;;
7607;SDS011;3845;48.120;11.534;2023-03-23T02:49:16;2.00;;;1.70;;
7607;SDS011;3845;48.120;11.534;2023-03-23T02:51:43;2.00;;;1.60;;
7607;SDS011;3845;48.120;11.534;2023-03-23T02:54:10;2.00;;;1.60;;
7607;SDS011;3845;48.120;11.534;2023-03-23T02:56:36;1.63;;;1.50;;
7607;SDS011;3845;48.120;11.534;2023-03-23T02:59:02;1.70;;;1.60;;
7607;SDS011;3845;48.120;11.534;2023-03-23T03:03:59;1.90;;;1.70;;
7607;SDS011;3845;48.120;11.534;2023-03-23T03:07:30;2.20;;;1.80;;
7607;SDS011;3845;48.120;11.534;2023-03-23T03:09:42;2.17;;;1.60;;
7607;SDS011;3845;48.120;11.534;2023-03-23T03:12:30;4.00;;;1.50;;
7607;SDS011;3845;48.120;11.534;2023-03-23T03:15:10;2.10;;;1.70;;
7607;SDS011;3845;48.120;11.534;2023-03-23T03:17:46;2.30;;;1.60;;
7607;SDS011;3845;48.120;11.534;2023-03-23T03:20:16;1.93;;;1.70;;
7607;SDS011;3845;48.120;11.534;2023-03-23T03:22:42;1.87;;;1.60;;
7607;SDS011;3845;48.120;11.534;2023-03-23T03:25:08;2.07;;;1.60;;
7607;SDS011;3845;48.120;11.534;2023-03-23T03:27:37;2.20;;;1.70;;
7607;SDS011;3845;48.120;11.534;2023-03-23T03:30:05;2.17;;;1.73;;
7607;SDS011;3845;48.120;11.534;2023-03-23T03:32:36;2.10;;;1.63;;
7607;SDS011;3845;48.120;11.534;2023-03-23T03:35:06;2.27;;;1.67;;
7607;SDS011;3845;48.120;11.534;2023-03-23T03:37:35;4.07;;;2.50;;
7607;SDS011;3845;48.120;11.534;2023-03-23T03:40:06;2.53;;;1.93;;
7607;SDS011;3845;48.120;11.534;2023-03-23T03:42:36;3.67;;;2.00;;
7607;SDS011;3845;48.120;11.534;2023-03-23T03:45:05;2.67;;;1.90;;
7607;SDS011;3845;48.120;11.534;2023-03-23T03:47:32;2.73;;;1.90;;
7607;SDS011;3845;48.120;11.534;2023-03-23T03:49:58;2.43;;;1.93;;
7607;SDS011;3845;48.120;11.534;2023-03-23T03:52:23;2.43;;;1.80;;
7607;SDS011;3845;48.120;11.534;2023-03-23T03:54:49;3.27;;;2.10;;
7607;SDS011;3845;48.120;11.534;2023-03-23T03:57:14;2.00;;;1.80;;
7607;SDS011;3845;48.120;11.534;2023-03-23T03:59:39;2.20;;;1.90;;
7607;SDS011;3845;48.120;11.534;2023-03-23T04:02:05;2.03;;;1.83;;
7607;SDS011;3845;48.120;11.534;2023-03-23T04:04:31;2.37;;;1.90;;
7607;SDS011;3845;48.120;11.534;2023-03-23T04:06:56;2.33;;;1.80;;
7607;SDS011;3845;48.120;11.534;2023-03-23T04:09:22;2.37;;;1.90;;
7607;SDS011;3845;48.120;11.534;2023-03-23T04:11:47;2.00;;;1.77;;
7607;SDS011;3845;48.120;11.534;2023-03-23T04:14:12;3.10;;;1.97;;
7607;SDS011;3845;48.120;11.534;2023-03-23T04:16:38;1.93;;;1.70;;
7607;SDS011;3845;48.120;11.534;2023-03-23T04:19:03;3.53;;;1.80;;
7607;SDS011;3845;48.120;11.534;2023-03-23T04:21:28;1.90;;;1.70;;
7607;SDS011;3845;48.120;11.534;2023-03-23T04:23:55;2.00;;;1.70;;
7607;SDS011;3845;48.120;11.534;2023-03-23T04:26:23;2.83;;;2.10;;
7607;SDS011;3845;48.120;11.534;2023-03-23T04:28:50;2.70;;;1.90;;
7607;SDS011;3845;48.120;11.534;2023-03-23T04:31:15;2.10;;;1.90;;
7607;SDS011;3845;48.120;11.534;2023-03-23T04:33:40;2.47;;;1.77;;
7607;SDS011;3845;48.120;11.534;2023-03-23T04:36:06;3.70;;;1.90;;
7607;SDS011;3845;48.120;11.534;2023-03-23T04:38:32;2.13;;;1.83;;
7607;SDS011;3845;48.120;11.534;2023-03-23T04:40:59;1.83;;;1.70;;
7607;SDS011;3845;48.120;11.534;2023-03-23T04:43:26;1.93;;;1.73;;
7607;SDS011;3845;48.120;11.534;2023-03-23T04:45:53;2.00;;;1.80;;
7607;SDS011;3845;48.120;11.534;2023-03-23T04:48:21;2.60;;;1.93;;
7607;SDS011;3845;48.120;11.534;2023-03-23T04:50:48;2.50;;;1.80;;
7607;SDS011;3845;48.120;11.534;2023-03-23T04:53:13;2.30;;;1.87;;
7607;SDS011;3845;48.120;11.534;2023-03-23T04:55:38;2.73;;;1.90;;
7607;SDS011;3845;48.120;11.534;2023-03-23T04:58:04;3.27;;;1.87;;
7607;SDS011;3845;48.120;11.534;2023-03-23T05:00:30;2.77;;;1.90;;
7607;SDS011;3845;48.120;11.534;2023-03-23T05:02:57;2.37;;;1.93;;
7607;SDS011;3845;48.120;11.534;2023-03-23T05:05:23;3.43;;;1.80;;
7607;SDS011;3845;48.120;11.534;2023-03-23T05:07:50;2.93;;;2.13;;
7607;SDS011;3845;48.120;11.534;2023-03-23T05:10:16;3.67;;;1.90;;
7607;SDS011;3845;48.120;11.534;2023-03-23T05:12:42;2.87;;;1.90;;
7607;SDS011;3845;48.120;11.534;2023-03-23T05:15:08;3.27;;;2.00;;
7607;SDS011;3845;48.120;11.534;2023-03-23T05:17:35;2.43;;;1.90;;
7607;SDS011;3845;48.120;11.534;2023-03-23T05:20:02;2.67;;;1.97;;
7607;SDS011;3845;48.120;11.534;2023-03-23T05:22:33;2.17;;;1.93;;
7607;SDS011;3845;48.120;11.534;2023-03-23T05:24:59;2.40;;;2.10;;
7607;SDS011;3845;48.120;11.534;2023-03-23T05:27:27;3.20;;;2.40;;
7607;SDS011;3845;48.120;11.534;2023-03-23T05:29:52;4.03;;;2.87;;
7607;SDS011;3845;48.120;11.534;2023-03-23T05:32:18;3.90;;;2.80;;
7607;SDS011;3845;48.120;11.534;2023-03-23T05:34:44;2.73;;;2.10;;
7607;SDS011;3845;48.120;11.534;2023-03-23T05:37:09;2.13;;;1.93;;
7607;SDS011;3845;48.120;11.534;2023-03-23T05:39:35;2.87;;;2.20;;
7607;SDS011;3845;48.120;11.534;2023-03-23T05:42:01;2.40;;;2.10;;
7607;SDS011;3845;48.120;11.534;2023-03-23T05:44:27;3.13;;;2.00;;
7607;SDS011;3845;48.120;11.534;2023-03-23T05:46:52;3.63;;;2.20;;
7607;SDS011;3845;48.120;11.534;2023-03-23T05:49:17;3.27;;;1.90;;
7607;SDS011;3845;48.120;11.534;2023-03-23T05:51:43;2.33;;;1.90;;
7607;SDS011;3845;48.120;11.534;2023-03-23T05:54:10;2.50;;;1.80;;
7607;SDS011;3845;48.120;11.534;2023-03-23T05:56:36;2.33;;;1.83;;
7607;SDS011;3845;48.120;11.534;2023-03-23T05:59:01;2.67;;;2.23;;
7607;SDS011;3845;48.120;11.534;2023-03-23T06:01:27;3.33;;;2.10;;
7607;SDS011;3845;48.120;11.534;2023-03-23T06:03:53;2.80;;;1.93;;
7607;SDS011;3845;48.120;11.534;2023-03-23T06:06:19;2.63;;;2.10;;
7607;SDS011;3845;48.120;11.534;2023-03-23T06:08:45;2.70;;;1.73;;
7607;SDS011;3845;48.120;11.534;2023-03-23T06:11:10;2.57;;;2.07;;
7607;SDS011;3845;48.120;11.534;2023-03-23T06:13:36;2.67;;;2.07;;
7607;SDS011;3845;48.120;11.534;2023-03-23T06:16:02;3.90;;;2.30;;
7607;SDS011;3845;48.120;11.534;2023-03-23T06:18:29;4.33;;;2.20;;
7607;SDS011;3845;48.120;11.534;2023-03-23T06:20:56;4.10;;;2.47;;
7607;SDS011;3845;48.120;11.534;2023-03-23T06:23:22;2.80;;;2.30;;
7607;SDS011;3845;48.120;11.534;2023-03-23T06:25:48;2.67;;;2.33;;
7607;SDS011;3845;48.120;11.534;2023-03-23T06:28:14;3.87;;;2.17;;
7607;SDS011;3845;48.120;11.534;2023-03-23T06:30:40;4.80;;;3.00;;
7607;SDS011;3845;48.120;11.534;2023-03-23T06:33:05;2.97;;;2.50;;
7607;SDS011;3845;48.120;11.534;2023-03-23T06:35:34;3.20;;;2.40;;
7607;SDS011;3845;48.120;11.534;2023-03-23T06:37:59;3.10;;;2.60;;
7607;SDS011;3845;48.120;11.534;2023-03-23T06:40:26;2.67;;;2.27;;
7607;SDS011;3845;48.120;11.534;2023-03-23T06:42:53;3.43;;;2.47;;
7607;SDS011;3845;48.120;11.534;2023-03-23T06:45:18;2.77;;;2.40;;
7607;SDS011;3845;48.120;11.534;2023-03-23T06:47:44;4.17;;;2.40;;
7607;SDS011;3845;48.120;11.534;2023-03-23T06:50:10;3.97;;;2.17;;
7607;SDS011;3845;48.120;11.534;2023-03-23T06:52:35;2.40;;;2.20;;
7607;SDS011;3845;48.120;11.534;2023-03-23T06:55:01;4.93;;;4.23;;
7607;SDS011;3845;48.120;11.534;2023-03-23T06:57:27;16.67;;;8.63;;
7607;SDS011;3845;48.120;11.534;2023-03-23T06:59:52;16.70;;;11.87;;
7607;SDS011;3845;48.120;11.534;2023-03-23T07:02:17;12.50;;;9.57;;
7607;SDS011;3845;48.120;11.534;2023-03-23T07:04:43;9.17;;;7.63;;
7607;SDS011;3845;48.120;11.534;2023-03-23T07:07:09;9.57;;;4.90;;
7607;SDS011;3845;48.120;11.534;2023-03-23T07:09:35;7.00;;;4.10;;
7607;SDS011;3845;48.120;11.534;2023-03-23T07:12:01;3.83;;;3.37;;
7607;SDS011;3845;48.120;11.534;2023-03-23T07:14:28;5.53;;;3.40;;
7607;SDS011;3845;48.120;11.534;2023-03-23T07:16:54;3.60;;;2.83;;
7607;SDS011;3845;48.120;11.534;2023-03-23T07:19:19;3.10;;;2.37;;
7607;SDS011;3845;48.120;11.534;2023-03-23T07:21:44;2.53;;;2.20;;
7607;SDS011;3845;48.120;11.534;2023-03-23T07:24:10;4.73;;;3.50;;
7607;SDS011;3845;48.120;11.534;2023-03-23T07:26:38;3.27;;;2.97;;
7607;SDS011;3845;48.120;11.534;2023-03-23T07:29:07;5.87;;;2.93;;
7607;SDS011;3845;48.120;11.534;2023-03-23T07:31:33;5.03;;;2.90;;
7607;SDS011;3845;48.120;11.534;2023-03-23T07:33:59;7.03;;;3.63;;
7607;SDS011;3845;48.120;11.534;2023-03-23T07:36:25;4.10;;;3.13;;
7607;SDS011;3845;48.120;11.534;2023-03-23T07:38:51;7.33;;;4.90;;
7607;SDS011;3845;48.120;11.534;2023-03-23T07:41:16;4.80;;;3.77;;
7607;SDS011;3845;48.120;11.534;2023-03-23T07:43:42;4.03;;;3.13;;
7607;SDS011;3845;48.120;11.534;2023-03-23T07:46:07;3.97;;;2.97;;
7607;SDS011;3845;48.120;11.534;2023-03-23T07:48:33;2.97;;;2.63;;
7607;SDS011;3845;48.120;11.534;2023-03-23T07:50:58;5.40;;;2.60;;
7607;SDS011;3845;48.120;11.534;2023-03-23T07:53:24;4.47;;;3.23;;
7607;SDS011;3845;48.120;11.534;2023-03-23T07:55:49;4.37;;;2.50;;
7607;SDS011;3845;48.120;11.534;2023-03-23T07:58:15;3.13;;;2.30;;
7607;SDS011;3845;48.120;11.534;2023-03-23T08:00:44;2.87;;;2.57;;
7607;SDS011;3845;48.120;11.534;2023-03-23T08:03:10;3.90;;;2.40;;
7607;SDS011;3845;48.120;11.534;2023-03-23T08:05:36;4.03;;;2.70;;
7607;SDS011;3845;48.120;11.534;2023-03-23T08:08:01;2.43;;;2.10;;
7607;SDS011;3845;48.120;11.534;2023-03-23T08:10:27;3.00;;;2.53;;
7607;SDS011;3845;48.120;11.534;2023-03-23T08:12:53;2.87;;;2.50;;
7607;SDS011;3845;48.120;11.534;2023-03-23T08:15:20;2.93;;;2.40;;
7607;SDS011;3845;48.120;11.534;2023-03-23T08:17:46;3.57;;;2.87;;
7607;SDS011;3845;48.120;11.534;2023-03-23T08:20:12;7.97;;;5.87;;
7607;SDS011;3845;48.120;11.534;2023-03-23T08:22:42;5.70;;;4.50;;
7607;SDS011;3845;48.120;11.534;2023-03-23T08:25:10;4.13;;;3.33;;
7607;SDS011;3845;48.120;11.534;2023-03-23T08:27:37;3.53;;;3.03;;
7607;SDS011;3845;48.120;11.534;2023-03-23T08:30:06;5.77;;;2.67;;
7607;SDS011;3845;48.120;11.534;2023-03-23T08:32:32;3.57;;;2.40;;
7607;SDS011;3845;48.120;11.534;2023-03-23T08:34:58;4.13;;;2.10;;
7607;SDS011;3845;48.120;11.534;2023-03-23T08:37:23;3.10;;;2.30;;
7607;SDS011;3845;48.120;11.534;2023-03-23T08:39:52;3.87;;;1.83;;
7607;SDS011;3845;48.120;11.534;2023-03-23T08:42:19;1.93;;;1.80;;
7607;SDS011;3845;48.120;11.534;2023-03-23T08:44:44;2.30;;;1.90;;
7607;SDS011;3845;48.120;11.534;2023-03-23T08:47:09;2.50;;;2.20;;
7607;SDS011;3845;48.120;11.534;2023-03-23T08:49:35;2.20;;;1.70;;
7607;SDS011;3845;48.120;11.534;2023-03-23T08:52:00;2.27;;;2.07;;
7607;SDS011;3845;48.120;11.534;2023-03-23T08:54:26;3.10;;;2.03;;
7607;SDS011;3845;48.120;11.534;2023-03-23T08:56:51;4.80;;;2.10;;
7607;SDS011;3845;48.120;11.534;2023-03-23T08:59:17;4.20;;;2.30;;
7607;SDS011;3845;48.120;11.534;2023-03-23T09:01:43;2.77;;;2.20;;
7607;SDS011;3845;48.120;11.534;2023-03-23T09:04:08;3.10;;;2.13;;
7607;SDS011;3845;48.120;11.534;2023-03-23T09:06:35;2.00;;;1.80;;
7607;SDS011;3845;48.120;11.534;2023-03-23T09:09:01;2.17;;;1.90;;
7607;SDS011;3845;48.120;11.534;2023-03-23T09:11:31;2.10;;;1.70;;
7607;SDS011;3845;48.120;11.534;2023-03-23T09:13:57;2.40;;;2.03;;
7607;SDS011;3845;48.120;11.534;2023-03-23T09:16:23;2.90;;;2.30;;
7607;SDS011;3845;48.120;11.534;2023-03-23T09:18:48;5.00;;;2.30;;
7607;SDS011;3845;48.120;11.534;2023-03-23T09:21:15;4.33;;;2.53;;
7607;SDS011;3845;48.120;11.534;2023-03-23T09:23:40;3.47;;;2.20;;
7607;SDS011;3845;48.120;11.534;2023-03-23T09:26:09;3.97;;;2.50;;
7607;SDS011;3845;48.120;11.534;2023-03-23T09:28:34;3.40;;;2.10;;
7607;SDS011;3845;48.120;11.534;2023-03-23T09:30:59;2.63;;;1.87;;
7607;SDS011;3845;48.120;11.534;2023-03-23T09:33:25;2.13;;;1.90;;
7607;SDS011;3845;48.120;11.534;2023-03-23T09:35:50;3.43;;;2.00;;
7607;SDS011;3845;48.120;11.534;2023-03-23T09:38:16;3.20;;;2.20;;
7607;SDS011;3845;48.120;11.534;2023-03-23T09:49:10;6.60;;;4.80;;
7607;SDS011;3845;48.120;11.534;2023-03-23T09:51:40;4.37;;;3.30;;
7607;SDS011;3845;48.120;11.534;2023-03-23T09:57:00;4.10;;;2.40;;
7607;SDS011;3845;48.120;11.534;2023-03-23T09:59:28;3.43;;;2.50;;
7607;SDS011;3845;48.120;11.534;2023-03-23T10:01:58;3.83;;;3.10;;
7607;SDS011;3845;48.120;11.534;2023-03-23T10:04:48;3.20;;;2.73;;
7607;SDS011;3845;48.120;11.534;2023-03-23T10:07:16;5.40;;;3.03;;
7607;SDS011;3845;48.120;11.534;2023-03-23T10:09:43;3.37;;;3.07;;
7607;SDS011;3845;48.120;11.534;2023-03-23T10:15:25;3.17;;;2.87;;
7607;SDS011;3845;48.120;11.534;2023-03-23T10:18:12;3.93;;;3.03;;
7607;SDS011;3845;48.120;11.534;2023-03-23T10:26:04;3.50;;;3.00;;
7607;SDS011;3845;48.120;11.534;2023-03-23T10:28:39;4.50;;;3.20;;
7607;SDS011;3845;48.120;11.534;2023-03-23T10:31:09;3.13;;;2.83;;
7607;SDS011;3845;48.120;11.534;2023-03-23T10:33:44;3.37;;;2.90;;
7607;SDS011;3845;48.120;11.534;2023-03-23T10:36:27;4.03;;;2.77;;
7607;SDS011;3845;48.120;11.534;2023-03-23T10:41:20;2.97;;;2.63;;
7607;SDS011;3845;48.120;11.534;2023-03-23T10:43:46;3.40;;;2.97;;
7607;SDS011;3845;48.120;11.534;2023-03-23T10:46:20;3.43;;;2.70;;
7607;SDS011;3845;48.120;11.534;2023-03-23T10:48:47;2.87;;;2.57;;
7607;SDS011;3845;48.120;11.534;2023-03-23T10:51:14;6.70;;;5.40;;
7607;SDS011;3845;48.120;11.534;2023-03-23T10:53:45;7.23;;;5.20;;
7607;SDS011;3845;48.120;11.534;2023-03-23T10:56:24;4.17;;;3.53;;
7607;SDS011;3845;48.120;11.534;2023-03-23T10:58:54;4.60;;;3.07;;
7607;SDS011;3845;48.120;11.534;2023-03-23T11:01:27;2.77;;;2.47;;
7607;SDS011;3845;48.120;11.534;2023-03-23T11:03:57;4.80;;;2.40;;
7607;SDS011;3845;48.120;11.534;2023-03-23T11:06:29;3.80;;;2.80;;
7607;SDS011;3845;48.120;11.534;2023-03-23T11:09:10;2.60;;;2.40;;
7607;SDS011;3845;48.120;11.534;2023-03-23T11:11:38;4.90;;;3.10;;
7607;SDS011;3845;48.120;11.534;2023-03-23T11:14:27;5.70;;;4.30;;
7607;SDS011;3845;48.120;11.534;2023-03-23T11:16:57;4.13;;;3.00;;
7607;SDS011;3845;48.120;11.534;2023-03-23T11:19:29;3.80;;;2.50;;
7607;SDS011;3845;48.120;11.534;2023-03-23T11:22:19;3.10;;;2.57;;
7607;SDS011;3845;48.120;11.534;2023-03-23T11:24:45;5.60;;;3.53;;
7607;SDS011;3845;48.120;11.534;2023-03-23T11:27:12;4.17;;;3.23;;
7607;SDS011;3845;48.120;11.534;2023-03-23T11:29:49;6.57;;;2.90;;
7607;SDS011;3845;48.120;11.534;2023-03-23T11:32:36;8.47;;;3.30;;
7607;SDS011;3845;48.120;11.534;2023-03-23T11:35:03;6.07;;;3.10;;
7607;SDS011;3845;48.120;11.534;2023-03-23T11:37:41;5.10;;;2.83;;
7607;SDS011;3845;48.120;11.534;2023-03-23T11:42:38;2.93;;;2.57;;
7607;SDS011;3845;48.120;11.534;2023-03-23T11:45:18;3.00;;;2.40;;
7607;SDS011;3845;48.120;11.534;2023-03-23T11:47:56;3.13;;;2.50;;
7607;SDS011;3845;48.120;11.534;2023-03-23T11:50:48;3.17;;;2.63;;
7607;SDS011;3845;48.120;11.534;2023-03-23T11:53:22;3.17;;;2.30;;
7607;SDS011;3845;48.120;11.534;2023-03-23T11:58:44;3.50;;;3.10;;
7607;SDS011;3845;48.120;11.534;2023-03-23T12:01:24;3.37;;;2.47;;
7607;SDS011;3845;48.120;11.534;2023-03-23T12:20:35;3.50;;;2.40;;
7607;SDS011;3845;48.120;11.534;2023-03-23T12:23:07;6.43;;;2.60;;
7607;SDS011;3845;48.120;11.534;2023-03-23T12:34:11;7.30;;;3.13;;
7607;SDS011;3845;48.120;11.534;2023-03-23T12:44:46;3.87;;;3.00;;
7607;SDS011;3845;48.120;11.534;2023-03-23T12:49:55;6.87;;;5.30;;
7607;SDS011;3845;48.120;11.534;2023-03-23T12:52:27;5.83;;;3.53;;
7607;SDS011;3845;48.120;11.534;2023-03-23T13:00:20;5.03;;;3.83;;
7607;SDS011;3845;48.120;11.534;2023-03-23T13:02:53;4.80;;;3.63;;
7607;SDS011;3845;48.120;11.534;2023-03-23T13:07:53;3.03;;;2.47;;
7607;SDS011;3845;48.120;11.534;2023-03-23T13:10:23;2.43;;;1.83;;
7607;SDS011;3845;48.120;11.534;2023-03-23T13:12:52;3.13;;;2.10;;
7607;SDS011;3845;48.120;11.534;2023-03-23T13:15:31;2.47;;;2.10;;
7607;SDS011;3845;48.120;11.534;2023-03-23T13:18:21;3.73;;;1.90;;
7607;SDS011;3845;48.120;11.534;2023-03-23T13:23:28;2.53;;;2.00;;
7607;SDS011;3845;48.120;11.534;2023-03-23T13:26:01;3.20;;;1.90;;
7607;SDS011;3845;48.120;11.534;2023-03-23T13:31:28;2.33;;;2.13;;
7607;SDS011;3845;48.120;11.534;2023-03-23T13:34:18;5.00;;;1.97;;
7607;SDS011;3845;48.120;11.534;2023-03-23T13:37:04;2.90;;;1.77;;
7607;SDS011;3845;48.120;11.534;2023-03-23T13:39:49;1.93;;;1.73;;
7607;SDS011;3845;48.120;11.534;2023-03-23T13:44:41;7.17;;;4.57;;
7607;SDS011;3845;48.120;11.534;2023-03-23T13:50:05;2.73;;;2.17;;
7607;SDS011;3845;48.120;11.534;2023-03-23T13:52:46;3.13;;;2.00;;
7607;SDS011;3845;48.120;11.534;2023-03-23T13:55:21;4.63;;;2.00;;
7607;SDS011;3845;48.120;11.534;2023-03-23T13:58:09;2.83;;;2.50;;
7607;SDS011;3845;48.120;11.534;2023-03-23T14:01:00;4.53;;;3.93;;
7607;SDS011;3845;48.120;11.534;2023-03-23T14:06:02;3.80;;;3.00;;
7607;SDS011;3845;48.120;11.534;2023-03-23T14:10:59;2.40;;;1.90;;
7607;SDS011;3845;48.120;11.534;2023-03-23T14:13:35;4.17;;;2.30;;
7607;SDS011;3845;48.120;11.534;2023-03-23T14:16:15;2.10;;;1.90;;
7607;SDS011;3845;48.120;11.534;2023-03-23T14:18:41;2.10;;;1.90;;
7607;SDS011;3845;48.120;11.534;2023-03-23T14:21:14;2.37;;;1.77;;
7607;SDS011;3845;48.120;11.534;2023-03-23T14:23:41;2.37;;;1.60;;
7607;SDS011;3845;48.120;11.534;2023-03-23T14:26:11;2.50;;;1.60;;
7607;SDS011;3845;48.120;11.534;2023-03-23T14:28:41;2.93;;;2.00;;
7607;SDS011;3845;48.120;11.534;2023-03-23T14:31:41;2.37;;;1.80;;
7607;SDS011;3845;48.120;11.534;2023-03-23T14:34:01;1.97;;;1.70;;
7607;SDS011;3845;48.120;11.534;2023-03-23T14:36:29;2.77;;;1.70;;
7607;SDS011;3845;48.120;11.534;2023-03-23T14:41:42;3.27;;;1.80;;
7607;SDS011;3845;48.120;11.534;2023-03-23T14:44:11;2.50;;;1.70;;
7607;SDS011;3845;48.120;11.534;2023-03-23T14:46:38;2.00;;;1.80;;
7607;SDS011;3845;48.120;11.534;2023-03-23T14:49:04;2.30;;;1.80;;
7607;SDS011;3845;48.120;11.534;2023-03-23T14:51:30;1.97;;;1.70;;
7607;SDS011;3845;48.120;11.534;2023-03-23T14:53:57;3.00;;;1.73;;
7607;SDS011;3845;48.120;11.534;2023-03-23T14:56:23;2.57;;;1.70;;
7607;SDS011;3845;48.120;11.534;2023-03-23T14:59:02;3.23;;;1.90;;
7607;SDS011;3845;48.120;11.534;2023-03-23T15:01:29;2.63;;;1.80;;
7607;SDS011;3845;48.120;11.534;2023-03-23T15:03:57;3.00;;;1.83;;
7607;SDS011;3845;48.120;11.534;2023-03-23T15:06:33;2.27;;;1.90;;
7607;SDS011;3845;48.120;11.534;2023-03-23T15:09:00;4.60;;;1.87;;
7607;SDS011;3845;48.120;11.534;2023-03-23T15:11:29;2.57;;;1.90;;
7607;SDS011;3845;48.120;11.534;2023-03-23T15:13:57;2.37;;;2.17;;
7607;SDS011;3845;48.120;11.534;2023-03-23T15:16:27;2.63;;;2.20;;
7607;SDS011;3845;48.120;11.534;2023-03-23T15:18:54;3.23;;;2.10;;
7607;SDS011;3845;48.120;11.534;2023-03-23T15:23:58;1.90;;;1.70;;
7607;SDS011;3845;48.120;11.534;2023-03-23T15:26:26;4.23;;;2.40;;
7607;SDS011;3845;48.120;11.534;2023-03-23T15:29:05;2.93;;;2.20;;
7607;SDS011;3845;48.120;11.534;2023-03-23T15:31:40;4.23;;;2.03;;
7607;SDS011;3845;48.120;11.534;2023-03-23T15:34:12;1.97;;;1.77;;
7607;SDS011;3845;48.120;11.534;2023-03-23T15:36:41;4.23;;;2.10;;
7607;SDS011;3845;48.120;11.534;2023-03-23T15:39:09;4.50;;;2.10;;
7607;SDS011;3845;48.120;11.534;2023-03-23T15:41:44;5.00;;;3.30;;
7607;SDS011;3845;48.120;11.534;2023-03-23T15:44:12;5.13;;;3.70;;
7607;SDS011;3845;48.120;11.534;2023-03-23T15:46:50;3.63;;;3.10;;
7607;SDS011;3845;48.120;11.534;2023-03-23T15:49:17;3.37;;;2.60;;
7607;SDS011;3845;48.120;11.534;2023-03-23T15:51:43;3.77;;;2.70;;
7607;SDS011;3845;48.120;11.534;2023-03-23T15:54:13;4.40;;;2.90;;
7607;SDS011;3845;48.120;11.534;2023-03-23T15:56:40;3.43;;;2.60;;
7607;SDS011;3845;48.120;11.534;2023-03-23T15:59:07;4.50;;;2.47;;
7607;SDS011;3845;48.120;11.534;2023-03-23T16:01:33;3.90;;;2.53;;
7607;SDS011;3845;48.120;11.534;2023-03-23T16:04:04;3.20;;;2.50;;
7607;SDS011;3845;48.120;11.534;2023-03-23T16:06:32;8.23;;;6.30;;
7607;SDS011;3845;48.120;11.534;2023-03-23T16:08:59;8.73;;;4.70;;
7607;SDS011;3845;48.120;11.534;2023-03-23T16:11:25;3.97;;;3.20;;
7607;SDS011;3845;48.120;11.534;2023-03-23T16:13:52;3.60;;;3.03;;
7607;SDS011;3845;48.120;11.534;2023-03-23T16:16:19;3.07;;;2.77;;
7607;SDS011;3845;48.120;11.534;2023-03-23T16:18:47;3.77;;;2.90;;
7607;SDS011;3845;48.120;11.534;2023-03-23T16:21:12;4.30;;;2.73;;
7607;SDS011;3845;48.120;11.534;2023-03-23T16:23:38;6.20;;;4.37;;
7607;SDS011;3845;48.120;11.534;2023-03-23T16:26:04;6.77;;;5.00;;
7607;SDS011;3845;48.120;11.534;2023-03-23T16:28:30;4.30;;;3.40;;
7607;SDS011;3845;48.120;11.534;2023-03-23T16:30:55;7.13;;;4.53;;
7607;SDS011;3845;48.120;11.534;2023-03-23T16:33:21;5.80;;;4.40;;
7607;SDS011;3845;48.120;11.534;2023-03-23T16:35:46;4.17;;;3.43;;
7607;SDS011;3845;48.120;11.534;2023-03-23T16:38:12;3.47;;;2.40;;
7607;SDS011;3845;48.120;11.534;2023-03-23T16:40:40;3.10;;;2.50;;
7607;SDS011;3845;48.120;11.534;2023-03-23T16:43:05;2.53;;;2.33;;
7607;SDS011;3845;48.120;11.534;2023-03-23T16:45:31;3.80;;;2.30;;
7607;SDS011;3845;48.120;11.534;2023-03-23T16:47:56;3.17;;;2.40;;
7607;SDS011;3845;48.120;11.534;2023-03-23T16:50:25;5.07;;;4.50;;
7607;SDS011;3845;48.120;11.534;2023-03-23T16:52:55;5.00;;;3.70;;
7607;SDS011;3845;48.120;11.534;2023-03-23T16:55:21;3.73;;;3.27;;
7607;SDS011;3845;48.120;11.534;2023-03-23T16:57:46;4.93;;;2.90;;
7607;SDS011;3845;48.120;11.534;2023-03-23T17:00:14;3.10;;;2.80;;
7607;SDS011;3845;48.120;11.534;2023-03-23T17:02:43;3.13;;;2.50;;
7607;SDS011;3845;48.120;11.534;2023-03-23T17:05:09;4.00;;;2.63;;